sensor_id;sensor_type;location;lat;lon;timestamp;P1;durP1;ratioP1;P2;durP2;ratioP2
10657;SDS011;5377;43.276;26.930;2022-08-19T02:41:53;8.57;;;7.45;;
10657;SDS011;5377;43.276;26.930;2022-08-19T02:51:15;10.02;;;9.18;;
10657;SDS011;5377;43.276;26.930;2022-08-19T03:49:21;9.00;;;8.20;;
10657;SDS011;5377;43.276;26.930;2022-08-19T04:05:54;9.02;;;8.13;;
10657;SDS011;5377;43.276;26.930;2022-08-19T04:15:12;9.38;;;8.55;;
10657;SDS011;5377;43.276;26.930;2022-08-19T04:21:05;9.85;;;8.82;;
10657;SDS011;5377;43.276;26.930;2022-08-19T04:26:55;9.25;;;8.38;;
10657;SDS011;5377;43.276;26.930;2022-08-19T04:39:21;16.20;;;10.57;;
10657;SDS011;5377;43.276;26.930;2022-08-19T04:42:09;15.18;;;12.20;;
10657;SDS011;5377;43.276;26.930;2022-08-19T04:44:53;19.10;;;14.70;;
10657;SDS011;5377;43.276;26.930;2022-08-19T04:47:20;14.20;;;12.73;;
10657;SDS011;5377;43.276;26.930;2022-08-19T04:49:47;17.27;;;13.55;;
10657;SDS011;5377;43.276;26.930;2022-08-19T04:52:14;24.90;;;15.60;;
10657;SDS011;5377;43.276;26.930;2022-08-19T05:07:37;9.75;;;8.80;;
10657;SDS011;5377;43.276;26.930;2022-08-19T05:10:07;10.90;;;9.90;;
10657;SDS011;5377;43.276;26.930;2022-08-19T05:12:34;10.05;;;8.88;;
10657;SDS011;5377;43.276;26.930;2022-08-19T05:15:02;8.35;;;7.65;;
10657;SDS011;5377;43.276;26.930;2022-08-19T05:20:53;9.02;;;8.10;;
10657;SDS011;5377;43.276;26.930;2022-08-19T05:23:39;12.85;;;11.75;;
10657;SDS011;5377;43.276;26.930;2022-08-19T05:26:06;10.30;;;9.25;;
10657;SDS011;5377;43.276;26.930;2022-08-19T05:28:34;12.68;;;11.45;;
10657;SDS011;5377;43.276;26.930;2022-08-19T05:34:24;19.20;;;9.35;;
10657;SDS011;5377;43.276;26.930;2022-08-19T05:40:17;9.70;;;8.80;;
10657;SDS011;5377;43.276;26.930;2022-08-19T05:46:05;10.13;;;9.18;;
10657;SDS011;5377;43.276;26.930;2022-08-19T05:51:50;8.55;;;7.35;;
10657;SDS011;5377;43.276;26.930;2022-08-19T05:54:18;11.50;;;9.60;;
10657;SDS011;5377;43.276;26.930;2022-08-19T05:56:46;11.13;;;8.15;;
10657;SDS011;5377;43.276;26.930;2022-08-19T05:59:14;10.30;;;8.20;;
10657;SDS011;5377;43.276;26.930;2022-08-19T06:01:42;13.82;;;10.85;;
10657;SDS011;5377;43.276;26.930;2022-08-19T06:04:11;26.25;;;23.73;;
10657;SDS011;5377;43.276;26.930;2022-08-19T06:06:39;12.93;;;8.65;;
10657;SDS011;5377;43.276;26.930;2022-08-19T06:09:07;11.27;;;8.45;;
10657;SDS011;5377;43.276;26.930;2022-08-19T06:11:41;8.43;;;7.57;;
10657;SDS011;5377;43.276;26.930;2022-08-19T06:14:12;18.55;;;17.05;;
10657;SDS011;5377;43.276;26.930;2022-08-19T06:16:43;10.68;;;8.52;;
10657;SDS011;5377;43.276;26.930;2022-08-19T06:19:12;11.27;;;10.20;;
10657;SDS011;5377;43.276;26.930;2022-08-19T06:21:41;13.75;;;8.15;;
10657;SDS011;5377;43.276;26.930;2022-08-19T06:24:10;10.90;;;9.80;;
10657;SDS011;5377;43.276;26.930;2022-08-19T06:26:41;11.73;;;10.05;;
10657;SDS011;5377;43.276;26.930;2022-08-19T06:29:10;12.40;;;11.27;;
10657;SDS011;5377;43.276;26.930;2022-08-19T06:31:41;17.15;;;15.63;;
10657;SDS011;5377;43.276;26.930;2022-08-19T06:34:09;11.15;;;8.75;;
10657;SDS011;5377;43.276;26.930;2022-08-19T06:36:38;11.20;;;7.68;;
10657;SDS011;5377;43.276;26.930;2022-08-19T06:39:07;9.07;;;8.23;;
10657;SDS011;5377;43.276;26.930;2022-08-19T06:41:36;7.40;;;6.63;;
10657;SDS011;5377;43.276;26.930;2022-08-19T06:44:05;8.00;;;7.30;;
10657;SDS011;5377;43.276;26.930;2022-08-19T06:46:34;7.78;;;6.95;;
10657;SDS011;5377;43.276;26.930;2022-08-19T06:49:02;13.05;;;7.32;;
10657;SDS011;5377;43.276;26.930;2022-08-19T06:51:36;9.95;;;7.68;;
10657;SDS011;5377;43.276;26.930;2022-08-19T06:54:04;9.77;;;6.85;;
10657;SDS011;5377;43.276;26.930;2022-08-19T06:56:31;9.68;;;7.05;;
10657;SDS011;5377;43.276;26.930;2022-08-19T06:59:00;8.63;;;7.72;;
10657;SDS011;5377;43.276;26.930;2022-08-19T07:01:27;7.90;;;7.20;;
10657;SDS011;5377;43.276;26.930;2022-08-19T07:03:56;7.40;;;6.75;;
10657;SDS011;5377;43.276;26.930;2022-08-19T07:06:22;18.33;;;9.98;;
10657;SDS011;5377;43.276;26.930;2022-08-19T07:08:49;41.53;;;26.83;;
10657;SDS011;5377;43.276;26.930;2022-08-19T07:11:17;15.27;;;13.68;;
10657;SDS011;5377;43.276;26.930;2022-08-19T07:13:46;12.95;;;8.75;;
10657;SDS011;5377;43.276;26.930;2022-08-19T07:16:15;10.38;;;9.27;;
10657;SDS011;5377;43.276;26.930;2022-08-19T07:18:44;12.55;;;11.38;;
10657;SDS011;5377;43.276;26.930;2022-08-19T07:21:14;8.90;;;7.13;;
10657;SDS011;5377;43.276;26.930;2022-08-19T07:23:43;7.13;;;6.53;;
10657;SDS011;5377;43.276;26.930;2022-08-19T07:26:12;8.68;;;7.65;;
10657;SDS011;5377;43.276;26.930;2022-08-19T07:28:41;9.55;;;8.23;;
10657;SDS011;5377;43.276;26.930;2022-08-19T07:31:10;7.90;;;7.13;;
10657;SDS011;5377;43.276;26.930;2022-08-19T07:33:38;9.20;;;6.75;;
10657;SDS011;5377;43.276;26.930;2022-08-19T07:36:06;11.18;;;7.43;;
10657;SDS011;5377;43.276;26.930;2022-08-19T07:38:38;12.98;;;8.10;;
10657;SDS011;5377;43.276;26.930;2022-08-19T07:41:07;8.77;;;6.32;;
10657;SDS011;5377;43.276;26.930;2022-08-19T07:43:35;7.43;;;6.43;;
10657;SDS011;5377;43.276;26.930;2022-08-19T07:46:02;7.80;;;6.15;;
10657;SDS011;5377;43.276;26.930;2022-08-19T07:48:29;7.40;;;6.15;;
10657;SDS011;5377;43.276;26.930;2022-08-19T07:51:04;7.75;;;7.03;;
10657;SDS011;5377;43.276;26.930;2022-08-19T07:53:33;8.60;;;6.80;;
10657;SDS011;5377;43.276;26.930;2022-08-19T07:56:03;7.93;;;6.32;;
10657;SDS011;5377;43.276;26.930;2022-08-19T07:58:35;8.18;;;7.35;;
10657;SDS011;5377;43.276;26.930;2022-08-19T08:01:04;7.93;;;6.80;;
10657;SDS011;5377;43.276;26.930;2022-08-19T08:03:32;12.60;;;8.07;;
10657;SDS011;5377;43.276;26.930;2022-08-19T08:06:17;10.20;;;6.82;;
10657;SDS011;5377;43.276;26.930;2022-08-19T08:09:04;11.25;;;7.05;;
10657;SDS011;5377;43.276;26.930;2022-08-19T08:11:39;13.60;;;7.47;;
10657;SDS011;5377;43.276;26.930;2022-08-19T08:14:08;9.50;;;7.43;;
10657;SDS011;5377;43.276;26.930;2022-08-19T08:16:35;9.00;;;7.35;;
10657;SDS011;5377;43.276;26.930;2022-08-19T08:19:03;9.63;;;6.45;;
10657;SDS011;5377;43.276;26.930;2022-08-19T08:21:31;9.15;;;6.13;;
10657;SDS011;5377;43.276;26.930;2022-08-19T08:23:59;9.70;;;6.90;;
10657;SDS011;5377;43.276;26.930;2022-08-19T08:26:26;8.18;;;5.95;;
10657;SDS011;5377;43.276;26.930;2022-08-19T08:28:54;13.25;;;6.80;;
10657;SDS011;5377;43.276;26.930;2022-08-19T08:31:21;8.30;;;5.15;;
10657;SDS011;5377;43.276;26.930;2022-08-19T08:33:48;6.03;;;5.50;;
10657;SDS011;5377;43.276;26.930;2022-08-19T08:36:15;6.32;;;5.50;;
10657;SDS011;5377;43.276;26.930;2022-08-19T08:38:43;7.03;;;5.85;;
10657;SDS011;5377;43.276;26.930;2022-08-19T08:41:13;6.95;;;5.78;;
10657;SDS011;5377;43.276;26.930;2022-08-19T08:43:49;5.88;;;5.28;;
10657;SDS011;5377;43.276;26.930;2022-08-19T08:46:21;9.68;;;5.30;;
10657;SDS011;5377;43.276;26.930;2022-08-19T08:48:56;6.28;;;4.82;;
10657;SDS011;5377;43.276;26.930;2022-08-19T08:51:29;6.50;;;5.90;;
10657;SDS011;5377;43.276;26.930;2022-08-19T08:54:00;8.38;;;5.68;;
10657;SDS011;5377;43.276;26.930;2022-08-19T08:56:29;9.13;;;5.20;;
10657;SDS011;5377;43.276;26.930;2022-08-19T08:58:58;8.20;;;5.43;;
10657;SDS011;5377;43.276;26.930;2022-08-19T09:01:30;7.45;;;6.45;;
10657;SDS011;5377;43.276;26.930;2022-08-19T09:03:57;12.13;;;5.72;;
10657;SDS011;5377;43.276;26.930;2022-08-19T09:06:25;8.43;;;5.88;;
10657;SDS011;5377;43.276;26.930;2022-08-19T09:08:59;6.00;;;5.00;;
10657;SDS011;5377;43.276;26.930;2022-08-19T09:11:35;6.60;;;5.30;;
10657;SDS011;5377;43.276;26.930;2022-08-19T09:14:14;5.93;;;5.38;;
10657;SDS011;5377;43.276;26.930;2022-08-19T09:16:51;6.75;;;5.05;;
10657;SDS011;5377;43.276;26.930;2022-08-19T09:19:18;7.85;;;5.60;;
10657;SDS011;5377;43.276;26.930;2022-08-19T09:21:45;8.15;;;5.63;;
10657;SDS011;5377;43.276;26.930;2022-08-19T09:24:11;5.97;;;4.90;;
10657;SDS011;5377;43.276;26.930;2022-08-19T09:26:38;5.80;;;5.32;;
10657;SDS011;5377;43.276;26.930;2022-08-19T09:29:05;9.48;;;6.13;;
10657;SDS011;5377;43.276;26.930;2022-08-19T09:31:32;6.35;;;5.22;;
10657;SDS011;5377;43.276;26.930;2022-08-19T09:34:00;6.18;;;5.53;;
10657;SDS011;5377;43.276;26.930;2022-08-19T09:36:29;6.95;;;5.50;;
10657;SDS011;5377;43.276;26.930;2022-08-19T09:38:58;6.32;;;5.00;;
10657;SDS011;5377;43.276;26.930;2022-08-19T09:41:26;6.05;;;4.72;;
10657;SDS011;5377;43.276;26.930;2022-08-19T09:43:54;5.82;;;5.00;;
10657;SDS011;5377;43.276;26.930;2022-08-19T09:46:22;6.45;;;4.85;;
10657;SDS011;5377;43.276;26.930;2022-08-19T09:48:51;7.13;;;4.57;;
10657;SDS011;5377;43.276;26.930;2022-08-19T09:51:20;7.05;;;4.93;;
10657;SDS011;5377;43.276;26.930;2022-08-19T09:53:48;8.27;;;4.85;;
10657;SDS011;5377;43.276;26.930;2022-08-19T09:56:19;5.53;;;4.95;;
10657;SDS011;5377;43.276;26.930;2022-08-19T09:58:47;11.25;;;5.20;;
10657;SDS011;5377;43.276;26.930;2022-08-19T10:01:18;10.35;;;5.25;;
10657;SDS011;5377;43.276;26.930;2022-08-19T10:03:47;6.45;;;4.53;;
10657;SDS011;5377;43.276;26.930;2022-08-19T10:06:16;4.75;;;4.28;;
10657;SDS011;5377;43.276;26.930;2022-08-19T10:08:45;5.78;;;5.25;;
10657;SDS011;5377;43.276;26.930;2022-08-19T10:11:12;8.85;;;5.38;;
10657;SDS011;5377;43.276;26.930;2022-08-19T10:13:41;5.22;;;4.72;;
10657;SDS011;5377;43.276;26.930;2022-08-19T10:16:10;7.43;;;4.72;;
10657;SDS011;5377;43.276;26.930;2022-08-19T10:18:38;6.00;;;4.68;;
10657;SDS011;5377;43.276;26.930;2022-08-19T10:21:10;7.20;;;4.60;;
10657;SDS011;5377;43.276;26.930;2022-08-19T10:23:40;4.75;;;4.38;;
10657;SDS011;5377;43.276;26.930;2022-08-19T10:26:12;5.60;;;5.05;;
10657;SDS011;5377;43.276;26.930;2022-08-19T10:28:41;10.57;;;5.25;;
10657;SDS011;5377;43.276;26.930;2022-08-19T10:31:09;6.15;;;4.40;;
10657;SDS011;5377;43.276;26.930;2022-08-19T10:33:38;12.15;;;6.18;;
10657;SDS011;5377;43.276;26.930;2022-08-19T10:36:07;5.00;;;4.50;;
10657;SDS011;5377;43.276;26.930;2022-08-19T10:38:36;6.20;;;4.55;;
10657;SDS011;5377;43.276;26.930;2022-08-19T10:41:09;7.28;;;4.88;;
10657;SDS011;5377;43.276;26.930;2022-08-19T10:43:37;4.45;;;4.20;;
10657;SDS011;5377;43.276;26.930;2022-08-19T10:46:05;8.68;;;4.57;;
10657;SDS011;5377;43.276;26.930;2022-08-19T10:48:32;6.40;;;4.63;;
10657;SDS011;5377;43.276;26.930;2022-08-19T10:50:59;6.35;;;4.22;;
10657;SDS011;5377;43.276;26.930;2022-08-19T10:53:43;6.95;;;4.63;;
10657;SDS011;5377;43.276;26.930;2022-08-19T10:56:11;7.95;;;5.00;;
10657;SDS011;5377;43.276;26.930;2022-08-19T10:58:56;9.00;;;5.32;;
10657;SDS011;5377;43.276;26.930;2022-08-19T11:01:23;4.70;;;4.10;;
10657;SDS011;5377;43.276;26.930;2022-08-19T11:03:50;9.52;;;4.90;;
10657;SDS011;5377;43.276;26.930;2022-08-19T11:06:17;8.15;;;4.90;;
10657;SDS011;5377;43.276;26.930;2022-08-19T11:08:45;8.23;;;5.00;;
10657;SDS011;5377;43.276;26.930;2022-08-19T11:11:13;6.10;;;4.13;;
10657;SDS011;5377;43.276;26.930;2022-08-19T11:13:41;7.40;;;4.55;;
10657;SDS011;5377;43.276;26.930;2022-08-19T11:16:09;6.60;;;4.80;;
10657;SDS011;5377;43.276;26.930;2022-08-19T11:18:39;8.05;;;4.20;;
10657;SDS011;5377;43.276;26.930;2022-08-19T11:21:08;6.90;;;4.88;;
10657;SDS011;5377;43.276;26.930;2022-08-19T11:23:38;5.45;;;4.57;;
10657;SDS011;5377;43.276;26.930;2022-08-19T11:26:05;8.85;;;5.03;;
10657;SDS011;5377;43.276;26.930;2022-08-19T11:28:33;6.32;;;4.13;;
10657;SDS011;5377;43.276;26.930;2022-08-19T11:31:00;8.45;;;4.50;;
10657;SDS011;5377;43.276;26.930;2022-08-19T11:33:28;4.90;;;4.32;;
10657;SDS011;5377;43.276;26.930;2022-08-19T11:35:56;6.85;;;4.22;;
10657;SDS011;5377;43.276;26.930;2022-08-19T11:38:25;5.95;;;5.22;;
10657;SDS011;5377;43.276;26.930;2022-08-19T11:40:56;9.20;;;5.15;;
10657;SDS011;5377;43.276;26.930;2022-08-19T11:43:23;13.52;;;6.07;;
10657;SDS011;5377;43.276;26.930;2022-08-19T11:45:53;13.55;;;6.32;;
10657;SDS011;5377;43.276;26.930;2022-08-19T11:48:20;6.05;;;4.68;;
10657;SDS011;5377;43.276;26.930;2022-08-19T11:50:48;4.70;;;4.30;;
10657;SDS011;5377;43.276;26.930;2022-08-19T11:53:15;7.25;;;5.38;;
10657;SDS011;5377;43.276;26.930;2022-08-19T11:55:43;10.82;;;9.10;;
10657;SDS011;5377;43.276;26.930;2022-08-19T11:58:11;9.85;;;5.00;;
10657;SDS011;5377;43.276;26.930;2022-08-19T12:00:38;6.38;;;5.03;;
10657;SDS011;5377;43.276;26.930;2022-08-19T12:03:06;8.07;;;6.00;;
10657;SDS011;5377;43.276;26.930;2022-08-19T12:05:35;8.15;;;7.18;;
10657;SDS011;5377;43.276;26.930;2022-08-19T12:08:03;6.55;;;4.55;;
10657;SDS011;5377;43.276;26.930;2022-08-19T12:10:30;4.63;;;4.32;;
10657;SDS011;5377;43.276;26.930;2022-08-19T12:12:57;8.10;;;5.50;;
10657;SDS011;5377;43.276;26.930;2022-08-19T12:15:25;7.38;;;5.30;;
10657;SDS011;5377;43.276;26.930;2022-08-19T12:17:54;8.55;;;5.55;;
10657;SDS011;5377;43.276;26.930;2022-08-19T12:20:23;6.80;;;5.20;;
10657;SDS011;5377;43.276;26.930;2022-08-19T12:22:51;11.55;;;5.18;;
10657;SDS011;5377;43.276;26.930;2022-08-19T12:25:21;7.03;;;4.22;;
10657;SDS011;5377;43.276;26.930;2022-08-19T12:27:47;9.77;;;4.07;;
10657;SDS011;5377;43.276;26.930;2022-08-19T12:30:14;15.30;;;4.45;;
10657;SDS011;5377;43.276;26.930;2022-08-19T12:32:41;9.20;;;5.15;;
10657;SDS011;5377;43.276;26.930;2022-08-19T12:35:08;11.40;;;3.95;;
10657;SDS011;5377;43.276;26.930;2022-08-19T12:37:38;11.45;;;6.00;;
10657;SDS011;5377;43.276;26.930;2022-08-19T12:40:07;20.08;;;6.97;;
10657;SDS011;5377;43.276;26.930;2022-08-19T12:42:36;8.88;;;4.70;;
10657;SDS011;5377;43.276;26.930;2022-08-19T12:45:07;16.30;;;4.35;;
10657;SDS011;5377;43.276;26.930;2022-08-19T12:47:35;4.00;;;3.58;;
10657;SDS011;5377;43.276;26.930;2022-08-19T12:50:02;11.32;;;5.03;;
10657;SDS011;5377;43.276;26.930;2022-08-19T12:52:34;13.32;;;3.92;;
10657;SDS011;5377;43.276;26.930;2022-08-19T12:55:03;7.05;;;3.25;;
10657;SDS011;5377;43.276;26.930;2022-08-19T12:57:32;10.93;;;4.63;;
10657;SDS011;5377;43.276;26.930;2022-08-19T13:00:04;10.43;;;4.57;;
10657;SDS011;5377;43.276;26.930;2022-08-19T13:02:34;5.00;;;3.40;;
10657;SDS011;5377;43.276;26.930;2022-08-19T13:05:01;5.43;;;4.25;;
10657;SDS011;5377;43.276;26.930;2022-08-19T13:07:29;6.18;;;3.97;;
10657;SDS011;5377;43.276;26.930;2022-08-19T13:09:58;8.65;;;4.57;;
10657;SDS011;5377;43.276;26.930;2022-08-19T13:12:26;7.28;;;4.38;;
10657;SDS011;5377;43.276;26.930;2022-08-19T13:14:53;4.28;;;3.22;;
10657;SDS011;5377;43.276;26.930;2022-08-19T13:17:21;8.18;;;4.22;;
10657;SDS011;5377;43.276;26.930;2022-08-19T13:19:48;15.15;;;12.60;;
10657;SDS011;5377;43.276;26.930;2022-08-19T13:22:15;9.70;;;5.55;;
10657;SDS011;5377;43.276;26.930;2022-08-19T13:24:42;10.73;;;5.47;;
10657;SDS011;5377;43.276;26.930;2022-08-19T13:27:09;9.00;;;5.57;;
10657;SDS011;5377;43.276;26.930;2022-08-19T13:29:37;7.13;;;4.25;;
10657;SDS011;5377;43.276;26.930;2022-08-19T13:32:23;7.05;;;4.20;;
10657;SDS011;5377;43.276;26.930;2022-08-19T13:35:08;8.27;;;5.55;;
10657;SDS011;5377;43.276;26.930;2022-08-19T13:37:35;5.32;;;3.90;;
10657;SDS011;5377;43.276;26.930;2022-08-19T13:40:08;6.30;;;3.80;;
10657;SDS011;5377;43.276;26.930;2022-08-19T13:42:41;8.82;;;3.78;;
10657;SDS011;5377;43.276;26.930;2022-08-19T13:45:10;5.28;;;4.20;;
10657;SDS011;5377;43.276;26.930;2022-08-19T13:47:37;6.18;;;4.07;;
10657;SDS011;5377;43.276;26.930;2022-08-19T13:50:10;6.05;;;3.88;;
10657;SDS011;5377;43.276;26.930;2022-08-19T13:52:37;7.40;;;4.05;;
10657;SDS011;5377;43.276;26.930;2022-08-19T13:55:05;19.38;;;5.35;;
10657;SDS011;5377;43.276;26.930;2022-08-19T13:57:33;15.10;;;4.97;;
10657;SDS011;5377;43.276;26.930;2022-08-19T14:00:01;9.18;;;5.88;;
10657;SDS011;5377;43.276;26.930;2022-08-19T14:02:36;4.88;;;3.70;;
10657;SDS011;5377;43.276;26.930;2022-08-19T14:05:04;8.60;;;4.07;;
10657;SDS011;5377;43.276;26.930;2022-08-19T14:07:32;5.10;;;3.60;;
10657;SDS011;5377;43.276;26.930;2022-08-19T14:09:59;5.32;;;4.70;;
10657;SDS011;5377;43.276;26.930;2022-08-19T14:12:26;12.98;;;4.22;;
10657;SDS011;5377;43.276;26.930;2022-08-19T14:14:53;8.98;;;4.30;;
10657;SDS011;5377;43.276;26.930;2022-08-19T14:17:19;10.70;;;4.60;;
10657;SDS011;5377;43.276;26.930;2022-08-19T14:19:48;12.55;;;4.43;;
10657;SDS011;5377;43.276;26.930;2022-08-19T14:22:15;5.50;;;4.25;;
10657;SDS011;5377;43.276;26.930;2022-08-19T14:24:43;7.40;;;3.90;;
10657;SDS011;5377;43.276;26.930;2022-08-19T14:27:11;7.43;;;4.43;;
10657;SDS011;5377;43.276;26.930;2022-08-19T14:29:38;7.97;;;4.63;;
10657;SDS011;5377;43.276;26.930;2022-08-19T14:32:05;8.73;;;4.43;;
10657;SDS011;5377;43.276;26.930;2022-08-19T14:34:32;9.98;;;4.90;;
10657;SDS011;5377;43.276;26.930;2022-08-19T14:37:03;6.78;;;4.03;;
10657;SDS011;5377;43.276;26.930;2022-08-19T14:39:31;7.80;;;5.30;;
10657;SDS011;5377;43.276;26.930;2022-08-19T14:41:58;8.65;;;3.55;;
10657;SDS011;5377;43.276;26.930;2022-08-19T14:44:24;7.32;;;3.55;;
10657;SDS011;5377;43.276;26.930;2022-08-19T14:46:51;6.25;;;3.72;;
10657;SDS011;5377;43.276;26.930;2022-08-19T14:49:18;6.00;;;3.92;;
10657;SDS011;5377;43.276;26.930;2022-08-19T14:51:45;7.32;;;3.83;;
10657;SDS011;5377;43.276;26.930;2022-08-19T14:54:14;9.07;;;4.10;;
10657;SDS011;5377;43.276;26.930;2022-08-19T14:56:41;6.95;;;4.82;;
10657;SDS011;5377;43.276;26.930;2022-08-19T14:59:08;4.07;;;3.35;;
10657;SDS011;5377;43.276;26.930;2022-08-19T15:01:35;7.78;;;3.65;;
10657;SDS011;5377;43.276;26.930;2022-08-19T15:04:02;4.32;;;3.15;;
10657;SDS011;5377;43.276;26.930;2022-08-19T15:06:29;9.90;;;7.45;;
10657;SDS011;5377;43.276;26.930;2022-08-19T15:08:56;4.78;;;3.65;;
10657;SDS011;5377;43.276;26.930;2022-08-19T15:11:25;8.95;;;4.18;;
10657;SDS011;5377;43.276;26.930;2022-08-19T15:13:53;6.38;;;3.75;;
10657;SDS011;5377;43.276;26.930;2022-08-19T15:16:21;10.13;;;4.55;;
10657;SDS011;5377;43.276;26.930;2022-08-19T15:18:51;9.65;;;4.15;;
10657;SDS011;5377;43.276;26.930;2022-08-19T15:21:21;7.63;;;4.05;;
10657;SDS011;5377;43.276;26.930;2022-08-19T15:23:48;11.02;;;5.20;;
10657;SDS011;5377;43.276;26.930;2022-08-19T15:26:19;8.90;;;4.35;;
10657;SDS011;5377;43.276;26.930;2022-08-19T15:28:47;10.77;;;5.60;;
10657;SDS011;5377;43.276;26.930;2022-08-19T15:31:17;9.80;;;4.38;;
10657;SDS011;5377;43.276;26.930;2022-08-19T15:33:48;4.43;;;3.45;;
10657;SDS011;5377;43.276;26.930;2022-08-19T15:36:15;15.60;;;4.00;;
10657;SDS011;5377;43.276;26.930;2022-08-19T15:38:42;9.32;;;4.35;;
10657;SDS011;5377;43.276;26.930;2022-08-19T15:41:15;5.43;;;4.60;;
10657;SDS011;5377;43.276;26.930;2022-08-19T15:43:51;9.23;;;4.03;;
10657;SDS011;5377;43.276;26.930;2022-08-19T15:46:20;5.65;;;3.85;;
10657;SDS011;5377;43.276;26.930;2022-08-19T15:48:49;9.13;;;7.15;;
10657;SDS011;5377;43.276;26.930;2022-08-19T15:51:17;8.52;;;4.30;;
10657;SDS011;5377;43.276;26.930;2022-08-19T15:53:46;6.97;;;4.15;;
10657;SDS011;5377;43.276;26.930;2022-08-19T15:56:13;7.43;;;3.72;;
10657;SDS011;5377;43.276;26.930;2022-08-19T15:58:40;9.77;;;4.05;;
10657;SDS011;5377;43.276;26.930;2022-08-19T16:01:27;10.80;;;4.10;;
10657;SDS011;5377;43.276;26.930;2022-08-19T16:04:07;6.05;;;4.00;;
10657;SDS011;5377;43.276;26.930;2022-08-19T16:06:52;7.00;;;4.25;;
10657;SDS011;5377;43.276;26.930;2022-08-19T16:09:22;9.98;;;6.07;;
10657;SDS011;5377;43.276;26.930;2022-08-19T16:11:53;7.30;;;6.40;;
10657;SDS011;5377;43.276;26.930;2022-08-19T16:14:20;7.63;;;5.53;;
10657;SDS011;5377;43.276;26.930;2022-08-19T16:16:49;7.90;;;4.05;;
10657;SDS011;5377;43.276;26.930;2022-08-19T16:19:16;10.65;;;4.20;;
10657;SDS011;5377;43.276;26.930;2022-08-19T16:21:45;8.20;;;4.25;;
10657;SDS011;5377;43.276;26.930;2022-08-19T16:24:15;8.70;;;5.72;;
10657;SDS011;5377;43.276;26.930;2022-08-19T16:26:43;7.47;;;5.20;;
10657;SDS011;5377;43.276;26.930;2022-08-19T16:29:12;8.15;;;7.35;;
10657;SDS011;5377;43.276;26.930;2022-08-19T16:31:40;9.00;;;4.78;;
10657;SDS011;5377;43.276;26.930;2022-08-19T16:34:10;11.60;;;5.05;;
10657;SDS011;5377;43.276;26.930;2022-08-19T16:36:38;8.98;;;5.47;;
10657;SDS011;5377;43.276;26.930;2022-08-19T16:39:05;8.00;;;4.53;;
10657;SDS011;5377;43.276;26.930;2022-08-19T16:41:33;6.07;;;4.80;;
10657;SDS011;5377;43.276;26.930;2022-08-19T16:44:02;6.20;;;4.72;;
10657;SDS011;5377;43.276;26.930;2022-08-19T16:46:29;10.88;;;5.35;;
10657;SDS011;5377;43.276;26.930;2022-08-19T16:48:56;12.43;;;4.47;;
10657;SDS011;5377;43.276;26.930;2022-08-19T16:51:24;11.45;;;5.50;;
10657;SDS011;5377;43.276;26.930;2022-08-19T16:53:53;11.65;;;5.00;;
10657;SDS011;5377;43.276;26.930;2022-08-19T16:56:20;8.95;;;4.82;;
10657;SDS011;5377;43.276;26.930;2022-08-19T16:58:49;7.97;;;5.35;;
10657;SDS011;5377;43.276;26.930;2022-08-19T17:01:16;11.95;;;5.85;;
10657;SDS011;5377;43.276;26.930;2022-08-19T17:03:44;8.13;;;5.78;;
10657;SDS011;5377;43.276;26.930;2022-08-19T17:06:15;8.15;;;7.35;;
10657;SDS011;5377;43.276;26.930;2022-08-19T17:08:45;8.40;;;7.55;;
10657;SDS011;5377;43.276;26.930;2022-08-19T17:11:12;6.40;;;5.90;;
10657;SDS011;5377;43.276;26.930;2022-08-19T17:13:39;10.85;;;6.93;;
10657;SDS011;5377;43.276;26.930;2022-08-19T17:16:06;9.85;;;7.25;;
10657;SDS011;5377;43.276;26.930;2022-08-19T17:18:33;8.82;;;7.22;;
10657;SDS011;5377;43.276;26.930;2022-08-19T17:21:00;9.82;;;6.38;;
10657;SDS011;5377;43.276;26.930;2022-08-19T17:23:27;9.32;;;6.85;;
10657;SDS011;5377;43.276;26.930;2022-08-19T17:25:56;8.60;;;6.90;;
10657;SDS011;5377;43.276;26.930;2022-08-19T17:28:24;8.00;;;7.20;;
10657;SDS011;5377;43.276;26.930;2022-08-19T17:30:55;9.82;;;6.97;;
10657;SDS011;5377;43.276;26.930;2022-08-19T17:33:25;10.73;;;7.78;;
10657;SDS011;5377;43.276;26.930;2022-08-19T17:35:52;8.40;;;6.50;;
10657;SDS011;5377;43.276;26.930;2022-08-19T17:38:21;13.10;;;7.47;;
10657;SDS011;5377;43.276;26.930;2022-08-19T17:40:49;9.18;;;6.80;;
10657;SDS011;5377;43.276;26.930;2022-08-19T17:43:17;8.73;;;6.60;;
10657;SDS011;5377;43.276;26.930;2022-08-19T17:45:44;12.70;;;7.47;;
10657;SDS011;5377;43.276;26.930;2022-08-19T17:48:12;8.38;;;6.47;;
10657;SDS011;5377;43.276;26.930;2022-08-19T17:50:39;10.90;;;9.88;;
10657;SDS011;5377;43.276;26.930;2022-08-19T17:53:06;11.48;;;8.23;;
10657;SDS011;5377;43.276;26.930;2022-08-19T17:55:33;7.95;;;7.05;;
10657;SDS011;5377;43.276;26.930;2022-08-19T17:58:00;7.43;;;6.72;;
10657;SDS011;5377;43.276;26.930;2022-08-19T18:00:31;7.63;;;5.88;;
10657;SDS011;5377;43.276;26.930;2022-08-19T18:03:00;9.25;;;7.28;;
10657;SDS011;5377;43.276;26.930;2022-08-19T18:05:29;7.70;;;6.95;;
10657;SDS011;5377;43.276;26.930;2022-08-19T18:07:59;8.07;;;6.50;;
10657;SDS011;5377;43.276;26.930;2022-08-19T18:10:27;14.60;;;6.95;;
10657;SDS011;5377;43.276;26.930;2022-08-19T18:12:56;9.05;;;6.82;;
10657;SDS011;5377;43.276;26.930;2022-08-19T18:15:25;9.30;;;7.50;;
10657;SDS011;5377;43.276;26.930;2022-08-19T18:17:53;10.23;;;7.72;;
10657;SDS011;5377;43.276;26.930;2022-08-19T18:20:20;8.60;;;7.70;;
10657;SDS011;5377;43.276;26.930;2022-08-19T18:22:48;11.77;;;7.53;;
10657;SDS011;5377;43.276;26.930;2022-08-19T18:25:17;12.02;;;9.63;;
10657;SDS011;5377;43.276;26.930;2022-08-19T18:27:48;11.25;;;10.15;;
10657;SDS011;5377;43.276;26.930;2022-08-19T18:30:16;12.10;;;10.70;;
10657;SDS011;5377;43.276;26.930;2022-08-19T18:32:45;9.93;;;8.90;;
10657;SDS011;5377;43.276;26.930;2022-08-19T18:35:19;9.82;;;7.35;;
10657;SDS011;5377;43.276;26.930;2022-08-19T18:37:49;8.45;;;7.25;;
10657;SDS011;5377;43.276;26.930;2022-08-19T18:40:18;7.50;;;6.72;;
10657;SDS011;5377;43.276;26.930;2022-08-19T18:43:04;9.40;;;6.90;;
10657;SDS011;5377;43.276;26.930;2022-08-19T18:45:52;8.50;;;6.78;;
10657;SDS011;5377;43.276;26.930;2022-08-19T18:48:39;11.23;;;7.88;;
10657;SDS011;5377;43.276;26.930;2022-08-19T18:51:24;11.77;;;7.13;;
10657;SDS011;5377;43.276;26.930;2022-08-19T18:53:53;12.30;;;8.15;;
10657;SDS011;5377;43.276;26.930;2022-08-19T18:56:23;12.93;;;9.82;;
10657;SDS011;5377;43.276;26.930;2022-08-19T18:58:52;12.93;;;11.52;;
10657;SDS011;5377;43.276;26.930;2022-08-19T19:01:21;14.93;;;10.10;;
10657;SDS011;5377;43.276;26.930;2022-08-19T19:03:54;18.02;;;10.98;;
10657;SDS011;5377;43.276;26.930;2022-08-19T19:06:22;11.50;;;9.40;;
10657;SDS011;5377;43.276;26.930;2022-08-19T19:08:53;10.60;;;8.20;;
10657;SDS011;5377;43.276;26.930;2022-08-19T19:11:22;14.50;;;12.77;;
10657;SDS011;5377;43.276;26.930;2022-08-19T19:13:51;15.18;;;12.65;;
10657;SDS011;5377;43.276;26.930;2022-08-19T19:16:18;18.17;;;11.38;;
10657;SDS011;5377;43.276;26.930;2022-08-19T19:18:46;14.70;;;13.05;;
10657;SDS011;5377;43.276;26.930;2022-08-19T19:21:16;17.40;;;13.13;;
10657;SDS011;5377;43.276;26.930;2022-08-19T19:23:45;12.52;;;10.50;;
10657;SDS011;5377;43.276;26.930;2022-08-19T19:26:12;11.45;;;9.23;;
10657;SDS011;5377;43.276;26.930;2022-08-19T19:28:39;10.93;;;9.40;;
10657;SDS011;5377;43.276;26.930;2022-08-19T19:31:10;15.35;;;11.20;;
10657;SDS011;5377;43.276;26.930;2022-08-19T19:33:38;16.55;;;12.30;;
10657;SDS011;5377;43.276;26.930;2022-08-19T19:36:06;15.93;;;12.18;;
10657;SDS011;5377;43.276;26.930;2022-08-19T19:38:33;13.82;;;11.35;;
10657;SDS011;5377;43.276;26.930;2022-08-19T19:41:02;12.68;;;10.88;;
10657;SDS011;5377;43.276;26.930;2022-08-19T19:43:29;13.70;;;10.77;;
10657;SDS011;5377;43.276;26.930;2022-08-19T19:45:57;11.80;;;10.68;;